Harbeson, Delaware
Current Conditions -  °F | °C
As of 3:54 PM on Saturday 20 Dec 2014 (Local Time) from KGED Reporting Station
Overcast Overcast  
Wind Chill: 33°   Ceiling: 3000
Heat Index: 37°   Visibility: 10mi
Dew Point: 25°   Wind: 5mph
Humidity: 62%   Direction: 20°NNE
Pressure: 30.27"   Gusts: NA
Location:  38.72°N, 75.29°W
Report Text: KGED 202054Z AUTO 02004KT 10SM OVC030 03/M04 A3027 RMK AO2 SLP250 T00281039 55001
Loading
Personal Weather Stations






























Interactive Weather Map New forecast layout! Learn more

10-Day Weather Forecast

Advertisements
Track Severe Weather on mobile